Terminal Aerodrome Forecast
Issued by NWS

Home | Current Version | Previous Version | Graphics & Text | Print | Product List | Glossary On
Versions: 1 2 3 4 5 6 7 8 9 10 11 12 13 14 15 16 17 18 19 20 21 22 23 24 25
000
FTUS43 KMPX 041502 AAA
TAFAXN
TAF AMD
KAXN 041502Z 0415/0512 14014G22KT P6SM BKN120
     FM042000 16013G19KT P6SM VCSH OVC100
     FM050600 15009KT P6SM OVC250=

USA.gov is the U.S. government's official web portal to all federal, state and local government web resources and services.